sensor_id;sensor_type;location;lat;lon;timestamp;P1;durP1;ratioP1;P2;durP2;ratioP2
23658;SDS011;12006;42.666;23.326;2023-08-06T00:01:37;4.13;;;3.35;;
23658;SDS011;12006;42.666;23.326;2023-08-06T00:04:03;4.63;;;3.45;;
23658;SDS011;12006;42.666;23.326;2023-08-06T00:06:28;6.95;;;3.90;;
23658;SDS011;12006;42.666;23.326;2023-08-06T00:08:54;4.50;;;3.53;;
23658;SDS011;12006;42.666;23.326;2023-08-06T00:11:20;7.13;;;3.78;;
23658;SDS011;12006;42.666;23.326;2023-08-06T00:13:45;4.68;;;3.95;;
23658;SDS011;12006;42.666;23.326;2023-08-06T00:16:11;3.72;;;3.42;;
23658;SDS011;12006;42.666;23.326;2023-08-06T00:18:37;4.70;;;3.90;;
23658;SDS011;12006;42.666;23.326;2023-08-06T00:21:03;5.55;;;3.50;;
23658;SDS011;12006;42.666;23.326;2023-08-06T00:23:29;4.15;;;3.70;;
23658;SDS011;12006;42.666;23.326;2023-08-06T00:25:55;4.38;;;3.83;;
23658;SDS011;12006;42.666;23.326;2023-08-06T00:28:20;4.10;;;3.28;;
23658;SDS011;12006;42.666;23.326;2023-08-06T00:30:46;4.88;;;3.80;;
23658;SDS011;12006;42.666;23.326;2023-08-06T00:33:11;5.53;;;3.60;;
23658;SDS011;12006;42.666;23.326;2023-08-06T00:35:36;6.05;;;4.00;;
23658;SDS011;12006;42.666;23.326;2023-08-06T00:38:02;4.88;;;3.63;;
23658;SDS011;12006;42.666;23.326;2023-08-06T00:40:27;4.47;;;3.75;;
23658;SDS011;12006;42.666;23.326;2023-08-06T00:42:55;4.50;;;3.53;;
23658;SDS011;12006;42.666;23.326;2023-08-06T00:45:20;5.35;;;4.85;;
23658;SDS011;12006;42.666;23.326;2023-08-06T00:47:47;4.20;;;3.80;;
23658;SDS011;12006;42.666;23.326;2023-08-06T00:50:13;3.97;;;3.42;;
23658;SDS011;12006;42.666;23.326;2023-08-06T00:52:38;3.95;;;3.55;;
23658;SDS011;12006;42.666;23.326;2023-08-06T00:55:05;4.85;;;4.18;;
23658;SDS011;12006;42.666;23.326;2023-08-06T00:57:31;4.65;;;3.38;;
23658;SDS011;12006;42.666;23.326;2023-08-06T00:59:57;5.15;;;4.13;;
23658;SDS011;12006;42.666;23.326;2023-08-06T01:02:23;4.03;;;3.50;;
23658;SDS011;12006;42.666;23.326;2023-08-06T01:04:48;4.55;;;3.90;;
23658;SDS011;12006;42.666;23.326;2023-08-06T01:12:56;5.53;;;3.90;;
23658;SDS011;12006;42.666;23.326;2023-08-06T01:15:29;4.25;;;3.72;;
23658;SDS011;12006;42.666;23.326;2023-08-06T01:18:00;4.78;;;4.28;;
23658;SDS011;12006;42.666;23.326;2023-08-06T01:20:29;6.45;;;4.07;;
23658;SDS011;12006;42.666;23.326;2023-08-06T01:22:55;5.38;;;3.97;;
23658;SDS011;12006;42.666;23.326;2023-08-06T01:25:21;4.80;;;3.88;;
23658;SDS011;12006;42.666;23.326;2023-08-06T01:28:11;4.75;;;4.03;;
23658;SDS011;12006;42.666;23.326;2023-08-06T01:30:59;5.18;;;3.53;;
23658;SDS011;12006;42.666;23.326;2023-08-06T01:33:30;5.50;;;3.70;;
23658;SDS011;12006;42.666;23.326;2023-08-06T01:35:57;6.43;;;4.65;;
23658;SDS011;12006;42.666;23.326;2023-08-06T01:38:23;5.35;;;3.78;;
23658;SDS011;12006;42.666;23.326;2023-08-06T01:40:49;4.30;;;3.90;;
23658;SDS011;12006;42.666;23.326;2023-08-06T01:43:15;3.88;;;3.47;;
23658;SDS011;12006;42.666;23.326;2023-08-06T01:45:40;4.63;;;4.10;;
23658;SDS011;12006;42.666;23.326;2023-08-06T01:48:06;5.85;;;3.67;;
23658;SDS011;12006;42.666;23.326;2023-08-06T01:50:31;4.57;;;3.78;;
23658;SDS011;12006;42.666;23.326;2023-08-06T01:52:56;4.72;;;4.28;;
23658;SDS011;12006;42.666;23.326;2023-08-06T01:55:22;5.65;;;5.05;;
23658;SDS011;12006;42.666;23.326;2023-08-06T01:57:47;4.95;;;4.45;;
23658;SDS011;12006;42.666;23.326;2023-08-06T02:00:12;7.32;;;4.80;;
23658;SDS011;12006;42.666;23.326;2023-08-06T02:02:38;6.13;;;5.05;;
23658;SDS011;12006;42.666;23.326;2023-08-06T02:05:05;5.13;;;4.63;;
23658;SDS011;12006;42.666;23.326;2023-08-06T02:07:31;6.00;;;4.50;;
23658;SDS011;12006;42.666;23.326;2023-08-06T02:09:56;5.07;;;3.83;;
23658;SDS011;12006;42.666;23.326;2023-08-06T02:12:22;4.85;;;4.05;;
23658;SDS011;12006;42.666;23.326;2023-08-06T02:14:47;3.95;;;3.33;;
23658;SDS011;12006;42.666;23.326;2023-08-06T02:17:12;4.15;;;3.30;;
23658;SDS011;12006;42.666;23.326;2023-08-06T02:19:38;4.57;;;4.18;;
23658;SDS011;12006;42.666;23.326;2023-08-06T02:22:03;4.65;;;4.13;;
23658;SDS011;12006;42.666;23.326;2023-08-06T02:24:29;4.47;;;4.07;;
23658;SDS011;12006;42.666;23.326;2023-08-06T02:26:54;5.20;;;3.72;;
23658;SDS011;12006;42.666;23.326;2023-08-06T02:29:21;4.88;;;4.10;;
23658;SDS011;12006;42.666;23.326;2023-08-06T02:31:46;0.20;;;0.20;;
23658;SDS011;12006;42.666;23.326;2023-08-06T02:34:12;0.10;;;0.10;;
23658;SDS011;12006;42.666;23.326;2023-08-06T02:36:37;0.10;;;0.10;;
23658;SDS011;12006;42.666;23.326;2023-08-06T02:39:02;0.10;;;0.10;;
23658;SDS011;12006;42.666;23.326;2023-08-06T02:41:28;0.73;;;0.73;;
23658;SDS011;12006;42.666;23.326;2023-08-06T02:43:53;0.10;;;0.10;;
23658;SDS011;12006;42.666;23.326;2023-08-06T02:46:18;0.10;;;0.10;;
23658;SDS011;12006;42.666;23.326;2023-08-06T02:48:44;0.10;;;0.10;;
23658;SDS011;12006;42.666;23.326;2023-08-06T02:51:21;0.10;;;0.10;;
23658;SDS011;12006;42.666;23.326;2023-08-06T02:53:50;0.10;;;0.10;;
23658;SDS011;12006;42.666;23.326;2023-08-06T02:56:15;0.10;;;0.10;;
23658;SDS011;12006;42.666;23.326;2023-08-06T02:58:40;0.10;;;0.10;;
23658;SDS011;12006;42.666;23.326;2023-08-06T03:01:06;1.05;;;1.05;;
23658;SDS011;12006;42.666;23.326;2023-08-06T03:03:32;0.10;;;0.10;;
23658;SDS011;12006;42.666;23.326;2023-08-06T03:05:58;0.10;;;0.10;;
23658;SDS011;12006;42.666;23.326;2023-08-06T03:08:23;0.10;;;0.10;;
23658;SDS011;12006;42.666;23.326;2023-08-06T03:10:49;0.10;;;0.10;;
23658;SDS011;12006;42.666;23.326;2023-08-06T03:13:31;0.10;;;0.10;;
23658;SDS011;12006;42.666;23.326;2023-08-06T03:16:30;0.10;;;0.10;;
23658;SDS011;12006;42.666;23.326;2023-08-06T03:18:55;0.10;;;0.10;;
23658;SDS011;12006;42.666;23.326;2023-08-06T03:21:27;0.10;;;0.10;;
23658;SDS011;12006;42.666;23.326;2023-08-06T03:23:52;0.10;;;0.10;;
23658;SDS011;12006;42.666;23.326;2023-08-06T03:26:18;0.10;;;0.10;;
23658;SDS011;12006;42.666;23.326;2023-08-06T03:28:43;0.10;;;0.10;;
23658;SDS011;12006;42.666;23.326;2023-08-06T03:32:06;0.10;;;0.10;;
23658;SDS011;12006;42.666;23.326;2023-08-06T03:35:30;0.30;;;0.30;;
23658;SDS011;12006;42.666;23.326;2023-08-06T03:38:54;0.10;;;0.10;;
23658;SDS011;12006;42.666;23.326;2023-08-06T03:42:17;0.10;;;0.10;;
23658;SDS011;12006;42.666;23.326;2023-08-06T03:45:41;0.10;;;0.10;;
23658;SDS011;12006;42.666;23.326;2023-08-06T03:49:05;0.10;;;0.10;;
23658;SDS011;12006;42.666;23.326;2023-08-06T03:52:29;0.10;;;0.10;;
23658;SDS011;12006;42.666;23.326;2023-08-06T03:55:53;0.10;;;0.10;;
23658;SDS011;12006;42.666;23.326;2023-08-06T03:59:17;0.10;;;0.10;;
23658;SDS011;12006;42.666;23.326;2023-08-06T04:02:41;0.10;;;0.10;;
23658;SDS011;12006;42.666;23.326;2023-08-06T04:06:05;0.52;;;0.52;;
23658;SDS011;12006;42.666;23.326;2023-08-06T04:09:30;0.10;;;0.10;;
23658;SDS011;12006;42.666;23.326;2023-08-06T04:12:53;3.95;;;3.72;;
23658;SDS011;12006;42.666;23.326;2023-08-06T04:16:19;0.10;;;0.10;;
23658;SDS011;12006;42.666;23.326;2023-08-06T04:19:46;0.10;;;0.10;;
23658;SDS011;12006;42.666;23.326;2023-08-06T04:23:10;0.10;;;0.10;;
23658;SDS011;12006;42.666;23.326;2023-08-06T04:26:34;0.10;;;0.10;;
23658;SDS011;12006;42.666;23.326;2023-08-06T04:29:58;0.10;;;0.10;;
23658;SDS011;12006;42.666;23.326;2023-08-06T04:33:23;0.10;;;0.10;;
23658;SDS011;12006;42.666;23.326;2023-08-06T04:36:48;0.10;;;0.10;;
23658;SDS011;12006;42.666;23.326;2023-08-06T04:40:12;0.10;;;0.10;;
23658;SDS011;12006;42.666;23.326;2023-08-06T04:43:36;0.10;;;0.10;;
23658;SDS011;12006;42.666;23.326;2023-08-06T04:47:00;0.10;;;0.10;;
23658;SDS011;12006;42.666;23.326;2023-08-06T04:50:24;0.10;;;0.10;;
23658;SDS011;12006;42.666;23.326;2023-08-06T04:53:48;0.10;;;0.10;;
23658;SDS011;12006;42.666;23.326;2023-08-06T04:57:11;0.20;;;0.20;;
23658;SDS011;12006;42.666;23.326;2023-08-06T05:00:36;0.10;;;0.10;;
23658;SDS011;12006;42.666;23.326;2023-08-06T05:04:00;0.10;;;0.10;;
23658;SDS011;12006;42.666;23.326;2023-08-06T05:07:24;0.20;;;0.20;;
23658;SDS011;12006;42.666;23.326;2023-08-06T05:10:47;0.10;;;0.10;;
23658;SDS011;12006;42.666;23.326;2023-08-06T05:14:12;0.10;;;0.10;;
23658;SDS011;12006;42.666;23.326;2023-08-06T05:17:36;0.55;;;0.55;;
23658;SDS011;12006;42.666;23.326;2023-08-06T05:21:00;0.10;;;0.10;;
23658;SDS011;12006;42.666;23.326;2023-08-06T05:24:23;1.00;;;1.00;;
23658;SDS011;12006;42.666;23.326;2023-08-06T05:27:47;0.15;;;0.15;;
23658;SDS011;12006;42.666;23.326;2023-08-06T05:31:11;1.23;;;1.13;;
23658;SDS011;12006;42.666;23.326;2023-08-06T05:34:35;0.10;;;0.10;;
23658;SDS011;12006;42.666;23.326;2023-08-06T05:37:59;0.20;;;0.20;;
23658;SDS011;12006;42.666;23.326;2023-08-06T05:41:23;0.10;;;0.10;;
23658;SDS011;12006;42.666;23.326;2023-08-06T05:44:47;0.10;;;0.10;;
23658;SDS011;12006;42.666;23.326;2023-08-06T05:48:11;0.10;;;0.10;;
23658;SDS011;12006;42.666;23.326;2023-08-06T05:51:37;0.13;;;0.13;;
23658;SDS011;12006;42.666;23.326;2023-08-06T05:55:01;1.08;;;1.02;;
23658;SDS011;12006;42.666;23.326;2023-08-06T05:58:25;0.15;;;0.15;;
23658;SDS011;12006;42.666;23.326;2023-08-06T06:01:49;0.10;;;0.10;;
23658;SDS011;12006;42.666;23.326;2023-08-06T06:05:13;0.20;;;0.20;;
23658;SDS011;12006;42.666;23.326;2023-08-06T06:08:37;0.10;;;0.10;;
23658;SDS011;12006;42.666;23.326;2023-08-06T06:12:01;0.10;;;0.10;;
23658;SDS011;12006;42.666;23.326;2023-08-06T06:15:25;0.10;;;0.10;;
23658;SDS011;12006;42.666;23.326;2023-08-06T06:18:49;0.98;;;0.90;;
23658;SDS011;12006;42.666;23.326;2023-08-06T06:22:13;0.10;;;0.10;;
23658;SDS011;12006;42.666;23.326;2023-08-06T06:25:41;0.10;;;0.10;;
23658;SDS011;12006;42.666;23.326;2023-08-06T06:29:05;0.10;;;0.10;;
23658;SDS011;12006;42.666;23.326;2023-08-06T06:32:29;0.10;;;0.10;;
23658;SDS011;12006;42.666;23.326;2023-08-06T06:35:53;0.10;;;0.10;;
23658;SDS011;12006;42.666;23.326;2023-08-06T06:39:17;0.10;;;0.10;;
23658;SDS011;12006;42.666;23.326;2023-08-06T06:42:41;0.20;;;0.20;;
23658;SDS011;12006;42.666;23.326;2023-08-06T06:46:05;0.20;;;0.20;;
23658;SDS011;12006;42.666;23.326;2023-08-06T06:49:29;0.10;;;0.10;;
23658;SDS011;12006;42.666;23.326;2023-08-06T06:52:53;0.17;;;0.17;;
23658;SDS011;12006;42.666;23.326;2023-08-06T06:56:17;0.20;;;0.20;;
23658;SDS011;12006;42.666;23.326;2023-08-06T06:59:41;0.10;;;0.10;;
23658;SDS011;12006;42.666;23.326;2023-08-06T07:03:05;0.10;;;0.10;;
23658;SDS011;12006;42.666;23.326;2023-08-06T07:06:30;0.20;;;0.20;;
23658;SDS011;12006;42.666;23.326;2023-08-06T07:09:54;0.10;;;0.10;;
23658;SDS011;12006;42.666;23.326;2023-08-06T07:13:28;0.10;;;0.10;;
23658;SDS011;12006;42.666;23.326;2023-08-06T07:16:53;0.10;;;0.10;;
23658;SDS011;12006;42.666;23.326;2023-08-06T07:20:17;0.10;;;0.10;;
23658;SDS011;12006;42.666;23.326;2023-08-06T07:23:41;0.10;;;0.10;;
23658;SDS011;12006;42.666;23.326;2023-08-06T07:27:05;0.13;;;0.13;;
23658;SDS011;12006;42.666;23.326;2023-08-06T07:30:29;0.10;;;0.10;;
23658;SDS011;12006;42.666;23.326;2023-08-06T07:33:53;0.15;;;0.15;;
23658;SDS011;12006;42.666;23.326;2023-08-06T07:37:21;0.20;;;0.20;;
23658;SDS011;12006;42.666;23.326;2023-08-06T07:40:46;0.10;;;0.10;;
23658;SDS011;12006;42.666;23.326;2023-08-06T07:44:11;0.10;;;0.10;;
23658;SDS011;12006;42.666;23.326;2023-08-06T07:47:35;0.10;;;0.10;;
23658;SDS011;12006;42.666;23.326;2023-08-06T07:50:59;0.10;;;0.10;;
23658;SDS011;12006;42.666;23.326;2023-08-06T07:54:23;0.10;;;0.10;;
23658;SDS011;12006;42.666;23.326;2023-08-06T07:57:46;0.10;;;0.10;;
23658;SDS011;12006;42.666;23.326;2023-08-06T08:01:10;3.65;;;2.70;;
23658;SDS011;12006;42.666;23.326;2023-08-06T08:04:34;2.50;;;2.30;;
23658;SDS011;12006;42.666;23.326;2023-08-06T08:07:58;2.72;;;2.53;;
23658;SDS011;12006;42.666;23.326;2023-08-06T08:11:22;2.70;;;2.38;;
23658;SDS011;12006;42.666;23.326;2023-08-06T08:14:46;3.40;;;2.67;;
23658;SDS011;12006;42.666;23.326;2023-08-06T08:18:10;2.60;;;2.40;;
23658;SDS011;12006;42.666;23.326;2023-08-06T08:21:34;2.88;;;2.50;;
23658;SDS011;12006;42.666;23.326;2023-08-06T08:24:57;2.67;;;2.47;;
23658;SDS011;12006;42.666;23.326;2023-08-06T08:28:21;2.50;;;2.30;;
23658;SDS011;12006;42.666;23.326;2023-08-06T08:31:46;2.78;;;2.58;;
23658;SDS011;12006;42.666;23.326;2023-08-06T08:35:10;2.50;;;2.30;;
23658;SDS011;12006;42.666;23.326;2023-08-06T08:38:35;3.03;;;2.83;;
23658;SDS011;12006;42.666;23.326;2023-08-06T08:41:59;3.53;;;2.90;;
23658;SDS011;12006;42.666;23.326;2023-08-06T08:45:24;2.50;;;2.30;;
23658;SDS011;12006;42.666;23.326;2023-08-06T08:48:51;3.08;;;2.85;;
23658;SDS011;12006;42.666;23.326;2023-08-06T08:52:19;2.78;;;2.58;;
23658;SDS011;12006;42.666;23.326;2023-08-06T08:55:49;2.83;;;2.60;;
23658;SDS011;12006;42.666;23.326;2023-08-06T08:59:13;3.10;;;2.80;;
23658;SDS011;12006;42.666;23.326;2023-08-06T09:02:39;2.63;;;2.42;;
23658;SDS011;12006;42.666;23.326;2023-08-06T09:06:04;3.00;;;2.80;;
23658;SDS011;12006;42.666;23.326;2023-08-06T09:09:33;3.13;;;2.55;;
23658;SDS011;12006;42.666;23.326;2023-08-06T09:12:57;3.63;;;3.00;;
23658;SDS011;12006;42.666;23.326;2023-08-06T09:16:22;3.30;;;2.72;;
23658;SDS011;12006;42.666;23.326;2023-08-06T09:19:46;2.88;;;2.60;;
23658;SDS011;12006;42.666;23.326;2023-08-06T09:23:10;3.00;;;2.80;;
23658;SDS011;12006;42.666;23.326;2023-08-06T09:26:39;2.90;;;2.70;;
23658;SDS011;12006;42.666;23.326;2023-08-06T09:30:04;3.22;;;2.38;;
23658;SDS011;12006;42.666;23.326;2023-08-06T09:33:29;2.70;;;2.40;;
23658;SDS011;12006;42.666;23.326;2023-08-06T09:36:53;3.03;;;2.72;;
23658;SDS011;12006;42.666;23.326;2023-08-06T09:40:30;3.13;;;2.55;;
23658;SDS011;12006;42.666;23.326;2023-08-06T09:43:57;1.67;;;1.58;;
23658;SDS011;12006;42.666;23.326;2023-08-06T09:47:30;2.28;;;1.85;;
23658;SDS011;12006;42.666;23.326;2023-08-06T09:50:54;2.00;;;1.90;;
23658;SDS011;12006;42.666;23.326;2023-08-06T09:54:24;2.00;;;1.90;;
23658;SDS011;12006;42.666;23.326;2023-08-06T09:57:48;2.22;;;2.03;;
23658;SDS011;12006;42.666;23.326;2023-08-06T10:01:13;2.10;;;1.90;;
23658;SDS011;12006;42.666;23.326;2023-08-06T10:04:38;2.17;;;1.98;;
23658;SDS011;12006;42.666;23.326;2023-08-06T10:08:03;2.88;;;2.35;;
23658;SDS011;12006;42.666;23.326;2023-08-06T10:11:28;1.40;;;1.30;;
23658;SDS011;12006;42.666;23.326;2023-08-06T10:14:55;2.13;;;1.80;;
23658;SDS011;12006;42.666;23.326;2023-08-06T10:18:19;1.75;;;1.65;;
23658;SDS011;12006;42.666;23.326;2023-08-06T10:25:30;2.60;;;1.80;;
23658;SDS011;12006;42.666;23.326;2023-08-06T10:28:54;2.10;;;2.00;;
23658;SDS011;12006;42.666;23.326;2023-08-06T10:32:18;1.88;;;1.77;;
23658;SDS011;12006;42.666;23.326;2023-08-06T10:35:48;1.83;;;1.70;;
23658;SDS011;12006;42.666;23.326;2023-08-06T10:39:15;1.73;;;1.63;;
23658;SDS011;12006;42.666;23.326;2023-08-06T10:42:45;2.03;;;1.70;;
23658;SDS011;12006;42.666;23.326;2023-08-06T10:46:21;1.90;;;1.70;;
23658;SDS011;12006;42.666;23.326;2023-08-06T10:49:52;2.10;;;1.90;;
23658;SDS011;12006;42.666;23.326;2023-08-06T10:53:16;2.30;;;2.10;;
23658;SDS011;12006;42.666;23.326;2023-08-06T10:56:40;2.22;;;2.10;;
23658;SDS011;12006;42.666;23.326;2023-08-06T11:00:05;3.67;;;2.72;;
23658;SDS011;12006;42.666;23.326;2023-08-06T11:03:30;8.15;;;7.30;;
23658;SDS011;12006;42.666;23.326;2023-08-06T11:06:58;3.38;;;2.55;;
23658;SDS011;12006;42.666;23.326;2023-08-06T11:10:22;2.22;;;1.92;;
23658;SDS011;12006;42.666;23.326;2023-08-06T11:13:48;3.25;;;2.20;;
23658;SDS011;12006;42.666;23.326;2023-08-06T11:17:15;3.58;;;2.45;;
23658;SDS011;12006;42.666;23.326;2023-08-06T11:20:39;2.58;;;2.30;;
23658;SDS011;12006;42.666;23.326;2023-08-06T11:24:04;2.72;;;2.25;;
23658;SDS011;12006;42.666;23.326;2023-08-06T11:27:29;3.13;;;2.67;;
23658;SDS011;12006;42.666;23.326;2023-08-06T11:30:53;3.33;;;2.83;;
23658;SDS011;12006;42.666;23.326;2023-08-06T11:34:17;3.65;;;3.35;;
23658;SDS011;12006;42.666;23.326;2023-08-06T11:37:44;4.95;;;4.07;;
23658;SDS011;12006;42.666;23.326;2023-08-06T11:41:08;4.53;;;4.13;;
23658;SDS011;12006;42.666;23.326;2023-08-06T11:44:34;4.90;;;4.35;;
23658;SDS011;12006;42.666;23.326;2023-08-06T11:48:00;4.57;;;4.05;;
23658;SDS011;12006;42.666;23.326;2023-08-06T11:51:24;5.25;;;4.10;;
23658;SDS011;12006;42.666;23.326;2023-08-06T11:55:08;4.28;;;3.88;;
23658;SDS011;12006;42.666;23.326;2023-08-06T11:58:33;3.30;;;3.00;;
23658;SDS011;12006;42.666;23.326;2023-08-06T12:01:57;4.43;;;4.00;;
23658;SDS011;12006;42.666;23.326;2023-08-06T12:05:22;4.30;;;3.35;;
23658;SDS011;12006;42.666;23.326;2023-08-06T12:08:46;3.88;;;3.50;;
23658;SDS011;12006;42.666;23.326;2023-08-06T12:12:10;3.67;;;3.38;;
23658;SDS011;12006;42.666;23.326;2023-08-06T12:15:34;4.00;;;3.60;;
23658;SDS011;12006;42.666;23.326;2023-08-06T12:18:58;3.75;;;3.45;;
23658;SDS011;12006;42.666;23.326;2023-08-06T12:22:22;4.03;;;3.72;;
23658;SDS011;12006;42.666;23.326;2023-08-06T12:25:46;3.65;;;3.45;;
23658;SDS011;12006;42.666;23.326;2023-08-06T12:29:10;4.15;;;3.78;;
23658;SDS011;12006;42.666;23.326;2023-08-06T12:32:35;4.20;;;3.80;;
23658;SDS011;12006;42.666;23.326;2023-08-06T12:35:59;4.15;;;3.83;;
23658;SDS011;12006;42.666;23.326;2023-08-06T12:39:23;4.35;;;3.95;;
23658;SDS011;12006;42.666;23.326;2023-08-06T12:42:49;4.30;;;4.00;;
23658;SDS011;12006;42.666;23.326;2023-08-06T12:46:13;4.45;;;4.05;;
23658;SDS011;12006;42.666;23.326;2023-08-06T12:49:37;3.97;;;3.65;;
23658;SDS011;12006;42.666;23.326;2023-08-06T12:53:01;4.88;;;4.38;;
23658;SDS011;12006;42.666;23.326;2023-08-06T12:56:25;4.63;;;4.22;;
23658;SDS011;12006;42.666;23.326;2023-08-06T12:59:49;4.82;;;4.43;;
23658;SDS011;12006;42.666;23.326;2023-08-06T13:03:12;4.75;;;4.35;;
23658;SDS011;12006;42.666;23.326;2023-08-06T13:06:37;4.88;;;4.45;;
23658;SDS011;12006;42.666;23.326;2023-08-06T13:10:01;4.38;;;4.07;;
23658;SDS011;12006;42.666;23.326;2023-08-06T13:13:25;5.72;;;4.22;;
23658;SDS011;12006;42.666;23.326;2023-08-06T13:16:49;3.92;;;3.55;;
23658;SDS011;12006;42.666;23.326;2023-08-06T13:20:12;3.78;;;3.47;;
23658;SDS011;12006;42.666;23.326;2023-08-06T13:23:37;4.55;;;4.10;;
23658;SDS011;12006;42.666;23.326;2023-08-06T13:27:01;4.22;;;3.85;;
23658;SDS011;12006;42.666;23.326;2023-08-06T13:30:25;4.47;;;4.18;;
23658;SDS011;12006;42.666;23.326;2023-08-06T13:33:49;3.85;;;3.55;;
23658;SDS011;12006;42.666;23.326;2023-08-06T13:37:13;3.72;;;3.33;;
23658;SDS011;12006;42.666;23.326;2023-08-06T13:40:37;3.83;;;3.53;;
23658;SDS011;12006;42.666;23.326;2023-08-06T13:44:02;4.25;;;3.83;;
23658;SDS011;12006;42.666;23.326;2023-08-06T13:47:28;4.03;;;3.72;;
23658;SDS011;12006;42.666;23.326;2023-08-06T13:50:52;3.95;;;3.65;;
23658;SDS011;12006;42.666;23.326;2023-08-06T13:54:16;4.03;;;3.60;;
23658;SDS011;12006;42.666;23.326;2023-08-06T13:57:41;3.33;;;3.13;;
23658;SDS011;12006;42.666;23.326;2023-08-06T14:01:05;3.50;;;3.20;;
23658;SDS011;12006;42.666;23.326;2023-08-06T14:04:29;4.18;;;3.78;;
23658;SDS011;12006;42.666;23.326;2023-08-06T14:07:53;4.10;;;3.70;;
23658;SDS011;12006;42.666;23.326;2023-08-06T14:11:17;4.70;;;4.13;;
23658;SDS011;12006;42.666;23.326;2023-08-06T14:14:41;4.13;;;3.83;;
23658;SDS011;12006;42.666;23.326;2023-08-06T14:18:05;4.85;;;3.80;;
23658;SDS011;12006;42.666;23.326;2023-08-06T14:21:29;4.05;;;3.67;;
23658;SDS011;12006;42.666;23.326;2023-08-06T14:24:55;4.28;;;3.88;;
23658;SDS011;12006;42.666;23.326;2023-08-06T14:28:19;3.85;;;3.55;;
23658;SDS011;12006;42.666;23.326;2023-08-06T14:31:43;3.78;;;3.53;;
23658;SDS011;12006;42.666;23.326;2023-08-06T14:35:07;3.67;;;3.38;;
23658;SDS011;12006;42.666;23.326;2023-08-06T14:38:31;3.58;;;3.28;;
23658;SDS011;12006;42.666;23.326;2023-08-06T14:41:54;3.50;;;3.22;;
23658;SDS011;12006;42.666;23.326;2023-08-06T14:45:18;8.65;;;7.85;;
23658;SDS011;12006;42.666;23.326;2023-08-06T14:48:42;3.45;;;3.15;;
23658;SDS011;12006;42.666;23.326;2023-08-06T14:52:06;3.85;;;3.42;;
23658;SDS011;12006;42.666;23.326;2023-08-06T14:55:30;2.90;;;2.70;;
23658;SDS011;12006;42.666;23.326;2023-08-06T14:58:54;3.00;;;2.80;;
23658;SDS011;12006;42.666;23.326;2023-08-06T15:02:19;3.08;;;2.88;;
23658;SDS011;12006;42.666;23.326;2023-08-06T15:05:43;3.17;;;2.97;;
23658;SDS011;12006;42.666;23.326;2023-08-06T15:09:07;3.05;;;2.80;;
23658;SDS011;12006;42.666;23.326;2023-08-06T15:12:32;3.85;;;3.35;;
23658;SDS011;12006;42.666;23.326;2023-08-06T15:15:55;3.65;;;3.35;;
23658;SDS011;12006;42.666;23.326;2023-08-06T15:19:21;3.60;;;3.30;;
23658;SDS011;12006;42.666;23.326;2023-08-06T15:22:47;3.50;;;3.20;;
23658;SDS011;12006;42.666;23.326;2023-08-06T15:26:10;3.72;;;3.17;;
23658;SDS011;12006;42.666;23.326;2023-08-06T15:29:34;3.65;;;3.20;;
23658;SDS011;12006;42.666;23.326;2023-08-06T15:32:58;3.13;;;2.83;;
23658;SDS011;12006;42.666;23.326;2023-08-06T15:36:22;3.15;;;2.85;;
23658;SDS011;12006;42.666;23.326;2023-08-06T15:39:47;3.17;;;2.90;;
23658;SDS011;12006;42.666;23.326;2023-08-06T15:43:11;3.05;;;2.85;;
23658;SDS011;12006;42.666;23.326;2023-08-06T15:46:35;2.97;;;2.78;;
23658;SDS011;12006;42.666;23.326;2023-08-06T15:50:06;3.70;;;2.80;;
23658;SDS011;12006;42.666;23.326;2023-08-06T15:53:30;3.15;;;2.80;;
23658;SDS011;12006;42.666;23.326;2023-08-06T15:56:54;3.35;;;2.90;;
23658;SDS011;12006;42.666;23.326;2023-08-06T16:00:17;2.95;;;2.63;;
23658;SDS011;12006;42.666;23.326;2023-08-06T16:03:41;3.97;;;3.00;;
23658;SDS011;12006;42.666;23.326;2023-08-06T16:07:05;2.97;;;2.67;;
23658;SDS011;12006;42.666;23.326;2023-08-06T16:10:29;2.80;;;2.60;;
23658;SDS011;12006;42.666;23.326;2023-08-06T16:13:53;2.95;;;2.60;;
23658;SDS011;12006;42.666;23.326;2023-08-06T16:17:17;3.30;;;2.83;;
23658;SDS011;12006;42.666;23.326;2023-08-06T16:20:42;2.95;;;2.70;;
23658;SDS011;12006;42.666;23.326;2023-08-06T16:24:06;2.83;;;2.63;;
23658;SDS011;12006;42.666;23.326;2023-08-06T16:27:34;2.50;;;2.30;;
23658;SDS011;12006;42.666;23.326;2023-08-06T16:30:58;2.97;;;1.30;;
23658;SDS011;12006;42.666;23.326;2023-08-06T16:34:22;1.38;;;1.27;;
23658;SDS011;12006;42.666;23.326;2023-08-06T16:37:47;1.63;;;1.52;;
23658;SDS011;12006;42.666;23.326;2023-08-06T16:41:11;1.60;;;1.30;;
23658;SDS011;12006;42.666;23.326;2023-08-06T16:44:36;1.20;;;1.10;;
23658;SDS011;12006;42.666;23.326;2023-08-06T16:48:03;1.27;;;1.02;;
23658;SDS011;12006;42.666;23.326;2023-08-06T16:51:27;1.50;;;1.15;;
23658;SDS011;12006;42.666;23.326;2023-08-06T16:54:51;1.10;;;1.00;;
23658;SDS011;12006;42.666;23.326;2023-08-06T16:58:19;1.42;;;1.20;;
23658;SDS011;12006;42.666;23.326;2023-08-06T17:01:43;2.17;;;1.05;;
23658;SDS011;12006;42.666;23.326;2023-08-06T17:05:07;1.25;;;1.15;;
23658;SDS011;12006;42.666;23.326;2023-08-06T17:08:31;1.35;;;1.13;;
23658;SDS011;12006;42.666;23.326;2023-08-06T17:11:55;1.23;;;0.90;;
23658;SDS011;12006;42.666;23.326;2023-08-06T17:15:18;1.58;;;0.90;;
23658;SDS011;12006;42.666;23.326;2023-08-06T17:18:42;1.35;;;1.08;;
23658;SDS011;12006;42.666;23.326;2023-08-06T17:22:09;1.33;;;1.23;;
23658;SDS011;12006;42.666;23.326;2023-08-06T17:25:33;1.42;;;1.13;;
23658;SDS011;12006;42.666;23.326;2023-08-06T17:28:57;1.50;;;1.40;;
23658;SDS011;12006;42.666;23.326;2023-08-06T17:32:21;1.15;;;0.90;;
23658;SDS011;12006;42.666;23.326;2023-08-06T17:35:45;1.77;;;1.10;;
23658;SDS011;12006;42.666;23.326;2023-08-06T17:39:09;1.50;;;1.23;;
23658;SDS011;12006;42.666;23.326;2023-08-06T17:42:33;1.02;;;1.00;;
23658;SDS011;12006;42.666;23.326;2023-08-06T17:45:57;1.20;;;1.05;;
23658;SDS011;12006;42.666;23.326;2023-08-06T17:49:21;2.28;;;0.98;;
23658;SDS011;12006;42.666;23.326;2023-08-06T17:52:45;1.35;;;1.10;;
23658;SDS011;12006;42.666;23.326;2023-08-06T17:56:09;1.20;;;1.00;;
23658;SDS011;12006;42.666;23.326;2023-08-06T17:59:33;1.25;;;1.00;;
23658;SDS011;12006;42.666;23.326;2023-08-06T18:02:58;1.27;;;1.17;;
23658;SDS011;12006;42.666;23.326;2023-08-06T18:06:22;1.20;;;1.08;;
23658;SDS011;12006;42.666;23.326;2023-08-06T18:09:46;1.98;;;1.20;;
23658;SDS011;12006;42.666;23.326;2023-08-06T18:13:09;2.17;;;0.82;;
23658;SDS011;12006;42.666;23.326;2023-08-06T18:16:34;1.15;;;0.60;;
23658;SDS011;12006;42.666;23.326;2023-08-06T18:19:58;0.90;;;0.73;;
23658;SDS011;12006;42.666;23.326;2023-08-06T18:23:22;0.68;;;0.68;;
23658;SDS011;12006;42.666;23.326;2023-08-06T18:26:46;1.00;;;0.70;;
23658;SDS011;12006;42.666;23.326;2023-08-06T18:30:11;0.63;;;0.60;;
23658;SDS011;12006;42.666;23.326;2023-08-06T18:33:37;1.63;;;0.60;;
23658;SDS011;12006;42.666;23.326;2023-08-06T18:37:01;0.55;;;0.55;;
23658;SDS011;12006;42.666;23.326;2023-08-06T18:40:28;1.15;;;0.63;;
23658;SDS011;12006;42.666;23.326;2023-08-06T18:43:52;0.73;;;0.70;;
23658;SDS011;12006;42.666;23.326;2023-08-06T18:47:15;1.27;;;0.85;;
23658;SDS011;12006;42.666;23.326;2023-08-06T18:50:39;0.65;;;0.65;;
23658;SDS011;12006;42.666;23.326;2023-08-06T18:54:03;0.93;;;0.73;;
23658;SDS011;12006;42.666;23.326;2023-08-06T18:57:27;0.95;;;0.85;;
23658;SDS011;12006;42.666;23.326;2023-08-06T19:00:55;1.88;;;1.10;;
23658;SDS011;12006;42.666;23.326;2023-08-06T19:04:19;1.13;;;1.02;;